»·PEaware :: N178KM KHQM-S23

N178KM :: KHQM-S23

FLIGHT INFORMATION

Flight Status: Arrived
Operator: Privately registered:
United States
More flights under this callsign
Pilot: John M. (9732)
Aircraft: CIRRUS SR-22
(SR22)
More flights by this aircraft type
Origin: KHQM Bowerman
United States
Destination: S23 Ione Mun
United States
More flights between these airports :: More routes between these airports
Route: +SOUPY V204 OLM V187 ELN V336 ELH V120 GEG V112 CEMOM
File this flight plan on PilotEdge
Remarks: WASHINGTON Alphabet challenge
Altitude:
(Current/Filed)
11,000ft
Speed:
(Current/Filed)
140kts
Departed: 08-Nov-20 06:33 PM
Arrived: 08-Nov-20 08:49 PM
Distance/Time
Traveled:
283nm/2:16
Distance/Time
To Go:
Arrived

Flight Plot

Page will automatically refresh every two minutes.

Flight plan parsing failed; only flown route is shown


Map Options




Map Legend


Flown Route
Filed Route
Departure Airport
Arrival Airport
Navaid (VOR, NDB)
Fix

Horizontal Profiles

Position Reports

Time Latitude Longitude Heading Altitude Ground
Speed
08-Nov-20 18:07 46.973453 -123.929796 169 16ft 0kts
08-Nov-20 18:08 46.973453 -123.929796 169 16ft 0kts
08-Nov-20 18:09 46.973453 -123.929796 169 16ft 0kts
08-Nov-20 18:10 46.973453 -123.929796 169 16ft 0kts
08-Nov-20 18:11 46.973453 -123.929796 169 16ft 0kts
08-Nov-20 18:12 46.973453 -123.929796 169 16ft 0kts
08-Nov-20 18:13 46.973453 -123.929796 169 16ft 0kts
08-Nov-20 18:14 46.973453 -123.929796 169 16ft 0kts
08-Nov-20 18:15 46.973453 -123.929796 169 16ft 0kts
08-Nov-20 18:16 46.973203 -123.928780 81 17ft 5kts
08-Nov-20 18:17 46.973527 -123.927241 46 16ft 4kts
08-Nov-20 18:18 46.973608 -123.927160 19 16ft 0kts
08-Nov-20 18:19 46.973657 -123.927295 112 16ft 2kts
08-Nov-20 18:20 46.973568 -123.927142 152 16ft 0kts
08-Nov-20 18:21 46.973568 -123.927142 152 16ft 0kts
08-Nov-20 18:22 46.973568 -123.927142 152 16ft 0kts
08-Nov-20 18:23 46.973568 -123.927142 152 16ft 0kts
08-Nov-20 18:24 46.973568 -123.927142 152 16ft 0kts
08-Nov-20 18:25 46.973568 -123.927142 152 16ft 0kts
08-Nov-20 18:26 46.973568 -123.927142 152 16ft 0kts
08-Nov-20 18:28 46.973568 -123.927142 152 16ft 0kts
08-Nov-20 18:29 46.973568 -123.927142 152 16ft 0kts
08-Nov-20 18:30 46.973568 -123.927142 152 16ft 0kts
08-Nov-20 18:31 46.973568 -123.927142 152 16ft 0kts
08-Nov-20 18:32 46.973138 -123.926981 167 17ft 6kts
08-Nov-20 18:33 46.971246 -123.935403 257 89ft 91kts
08-Nov-20 18:34 46.959058 -123.973930 182 1363ft 117kts
08-Nov-20 18:35 46.954782 -123.933559 78 2624ft 113kts
08-Nov-20 18:36 46.959822 -123.885842 77 3588ft 128kts
08-Nov-20 18:37 46.965462 -123.833583 78 4444ft 129kts
08-Nov-20 18:38 46.968779 -123.781047 86 5286ft 128kts
08-Nov-20 18:39 46.968241 -123.728150 87 6020ft 131kts
08-Nov-20 18:40 46.967398 -123.673836 87 6651ft 133kts
08-Nov-20 18:41 46.966518 -123.619263 87 7263ft 133kts
08-Nov-20 18:42 46.965626 -123.564830 87 7845ft 133kts
08-Nov-20 18:43 46.964703 -123.510248 87 8397ft 133kts
08-Nov-20 18:44 46.963746 -123.455373 87 8929ft 133kts
08-Nov-20 18:45 46.963474 -123.400794 83 9437ft 132kts
08-Nov-20 18:45 46.964294 -123.355621 82 9841ft 132kts
08-Nov-20 18:47 46.965415 -123.292750 82 10384ft 131kts
08-Nov-20 18:47 46.966202 -123.248091 81 10747ft 130kts
08-Nov-20 18:48 46.967218 -123.190982 82 10773ft 146kts
08-Nov-20 18:49 46.968217 -123.130085 82 10769ft 149kts
08-Nov-20 18:50 46.969193 -123.068604 82 10769ft 149kts
08-Nov-20 18:51 46.970144 -123.007149 82 10769ft 150kts
08-Nov-20 18:52 46.971061 -122.945678 82 10769ft 149kts
08-Nov-20 18:53 46.972280 -122.884262 81 10768ft 149kts
08-Nov-20 18:54 46.974226 -122.822965 81 10769ft 149kts
08-Nov-20 18:55 46.976136 -122.761559 81 10768ft 149kts
08-Nov-20 18:56 46.978018 -122.700182 81 10768ft 149kts
08-Nov-20 18:57 46.979883 -122.638844 81 10768ft 149kts
08-Nov-20 18:58 46.981702 -122.577398 82 10769ft 150kts
08-Nov-20 18:59 46.983489 -122.515994 82 10768ft 150kts
08-Nov-20 19:00 46.985274 -122.453725 82 10769ft 153kts
08-Nov-20 19:01 46.987036 -122.390795 82 10769ft 154kts
08-Nov-20 19:02 46.988794 -122.327016 82 10770ft 155kts
08-Nov-20 19:03 46.990513 -122.263172 82 10769ft 155kts
08-Nov-20 19:04 46.992192 -122.199500 82 10769ft 155kts
08-Nov-20 19:05 46.993837 -122.135770 82 10769ft 155kts
08-Nov-20 19:06 46.995451 -122.072090 82 10769ft 155kts
08-Nov-20 19:07 46.997023 -122.008488 83 10768ft 155kts
08-Nov-20 19:08 46.998513 -121.947284 82 11001ft 152kts
08-Nov-20 19:09 47.000005 -121.883773 83 10998ft 155kts
08-Nov-20 19:10 47.001471 -121.820061 82 10997ft 155kts
08-Nov-20 19:11 47.002909 -121.756107 82 10997ft 156kts
08-Nov-20 19:12 47.004322 -121.692098 82 10997ft 155kts
08-Nov-20 19:13 47.005681 -121.628314 82 10997ft 155kts
08-Nov-20 19:14 47.007017 -121.564482 82 10996ft 155kts
08-Nov-20 19:15 47.008286 -121.502710 82 10998ft 158kts
08-Nov-20 19:16 47.009539 -121.438408 82 10997ft 155kts
08-Nov-20 19:17 47.010763 -121.374747 82 10981ft 155kts
08-Nov-20 19:18 47.011964 -121.310227 83 10878ft 155kts
08-Nov-20 19:19 47.013116 -121.246395 83 10878ft 155kts
08-Nov-20 19:20 47.014206 -121.183507 82 10918ft 153kts
08-Nov-20 19:21 47.015296 -121.120427 83 10933ft 153kts
08-Nov-20 19:22 47.016320 -121.057587 82 10950ft 152kts
08-Nov-20 19:23 47.017312 -120.995163 82 10968ft 152kts
08-Nov-20 19:24 47.018259 -120.934404 82 10979ft 155kts
08-Nov-20 19:25 47.019188 -120.871174 82 10978ft 153kts
08-Nov-20 19:26 47.020073 -120.808410 82 10978ft 153kts
08-Nov-20 19:27 47.020933 -120.745724 82 10978ft 152kts
08-Nov-20 19:28 47.021757 -120.683329 82 10978ft 151kts
08-Nov-20 19:29 47.022545 -120.620985 82 10978ft 151kts
08-Nov-20 19:30 47.023295 -120.558984 82 10978ft 151kts
08-Nov-20 19:31 47.024011 -120.496925 82 10978ft 151kts
08-Nov-20 19:32 47.031566 -120.438528 58 10979ft 144kts
08-Nov-20 19:33 47.049308 -120.387172 58 10981ft 148kts
08-Nov-20 19:34 47.067886 -120.333522 59 10979ft 145kts
08-Nov-20 19:35 47.085598 -120.282506 59 10987ft 151kts
08-Nov-20 19:36 47.103517 -120.230347 57 11709ft 95kts
08-Nov-20 19:37 47.121774 -120.177797 59 10989ft 151kts
08-Nov-20 19:38 47.140589 -120.123132 59 10994ft 148kts
08-Nov-20 19:39 47.159404 -120.068431 59 10851ft 155kts
08-Nov-20 19:40 47.179444 -120.009999 60 10376ft 162kts
08-Nov-20 19:41 47.198505 -119.954122 59 10626ft 129kts
08-Nov-20 19:42 47.217406 -119.899011 60 10168ft 160kts
08-Nov-20 19:43 47.237745 -119.839254 60 9682ft 165kts
08-Nov-20 19:44 47.258483 -119.778249 60 9189ft 167kts
08-Nov-20 19:45 47.278960 -119.717900 60 9006ft 159kts
08-Nov-20 19:46 47.298629 -119.659789 60 9009ft 157kts
08-Nov-20 19:47 47.318096 -119.602138 60 9010ft 157kts
08-Nov-20 19:48 47.337638 -119.544159 60 9008ft 157kts
08-Nov-20 19:49 47.357060 -119.486426 60 9010ft 156kts
08-Nov-20 19:50 47.376488 -119.428521 60 9009ft 156kts
08-Nov-20 19:51 47.384674 -119.364146 76 9006ft 159kts
08-Nov-20 19:52 47.391897 -119.299398 76 9006ft 159kts
08-Nov-20 19:53 47.399073 -119.234799 77 9004ft 159kts
08-Nov-20 19:54 47.406227 -119.169860 77 9009ft 158kts
08-Nov-20 19:55 47.413322 -119.104993 76 9004ft 158kts
08-Nov-20 19:56 47.420386 -119.040405 76 9007ft 158kts
08-Nov-20 19:57 47.427374 -118.975688 76 8996ft 158kts
08-Nov-20 19:58 47.434364 -118.911116 76 8990ft 158kts
08-Nov-20 19:59 47.441312 -118.846319 76 8983ft 159kts
08-Nov-20 20:00 47.448212 -118.781638 76 8976ft 159kts
08-Nov-20 20:01 47.455074 -118.716979 76 8976ft 159kts
08-Nov-20 20:02 47.461896 -118.652329 76 8975ft 158kts
08-Nov-20 20:03 47.468700 -118.587460 76 8975ft 159kts
08-Nov-20 20:04 47.475402 -118.523241 76 9012ft 158kts
08-Nov-20 20:05 47.482124 -118.458458 76 8979ft 160kts
08-Nov-20 20:06 47.488813 -118.393595 76 8973ft 159kts
08-Nov-20 20:07 47.495480 -118.328595 77 8976ft 159kts
08-Nov-20 20:08 47.502165 -118.263055 77 8935ft 159kts
08-Nov-20 20:09 47.508780 -118.197766 77 8936ft 159kts
08-Nov-20 20:10 47.515350 -118.132579 77 8935ft 159kts
08-Nov-20 20:11 47.521891 -118.067319 77 8936ft 159kts
08-Nov-20 20:12 47.528368 -118.002182 76 8936ft 159kts
08-Nov-20 20:13 47.534856 -117.936818 77 8935ft 159kts
08-Nov-20 20:14 47.541294 -117.871329 77 8935ft 159kts
08-Nov-20 20:15 47.547693 -117.805932 77 8935ft 159kts
08-Nov-20 20:16 47.554067 -117.740454 77 8935ft 159kts
08-Nov-20 20:17 47.560373 -117.675129 77 8935ft 159kts
08-Nov-20 20:18 47.576660 -117.619281 26 8941ft 152kts
08-Nov-20 20:19 47.614764 -117.590246 25 8936ft 153kts
08-Nov-20 20:20 47.652949 -117.561780 25 8940ft 153kts
08-Nov-20 20:21 47.691242 -117.533297 25 8945ft 153kts
08-Nov-20 20:22 47.729490 -117.504816 25 8952ft 152kts
08-Nov-20 20:24 47.767103 -117.476763 25 8958ft 152kts
08-Nov-20 20:25 47.805637 -117.447986 25 8961ft 152kts
08-Nov-20 20:26 47.843832 -117.419404 25 8961ft 153kts
08-Nov-20 20:27 47.882642 -117.394741 359 8964ft 152kts
08-Nov-20 20:28 47.925364 -117.395321 359 8962ft 153kts
08-Nov-20 20:29 47.967980 -117.396232 359 8984ft 152kts
08-Nov-20 20:30 48.010730 -117.397180 359 8989ft 152kts
08-Nov-20 20:31 48.053173 -117.398156 359 9016ft 151kts
08-Nov-20 20:32 48.095469 -117.399110 359 9015ft 151kts
08-Nov-20 20:33 48.137987 -117.400077 359 9019ft 152kts
08-Nov-20 20:34 48.180654 -117.401050 359 9019ft 152kts
08-Nov-20 20:35 48.223280 -117.402027 359 9019ft 153kts
08-Nov-20 20:36 48.266068 -117.402962 359 9018ft 153kts
08-Nov-20 20:37 48.308089 -117.403925 359 9119ft 151kts
08-Nov-20 20:38 48.350704 -117.404891 359 9118ft 153kts
08-Nov-20 20:39 48.393469 -117.405884 359 9117ft 153kts
08-Nov-20 20:40 48.436192 -117.406870 359 9118ft 153kts
08-Nov-20 20:40 48.471748 -117.407686 359 9118ft 153kts
08-Nov-20 20:42 48.519444 -117.401132 13 8094ft 132kts
08-Nov-20 20:42 48.547576 -117.389358 13 7232ft 123kts
08-Nov-20 20:44 48.585296 -117.373420 5 5810ft 116kts
08-Nov-20 20:44 48.610730 -117.378256 346 4907ft 101kts
08-Nov-20 20:46 48.642801 -117.391509 345 4161ft 106kts
08-Nov-20 20:46 48.664939 -117.398865 346 3619ft 90kts
08-Nov-20 20:47 48.686770 -117.405914 348 2871ft 88kts
08-Nov-20 20:48 48.708804 -117.413256 351 2118ft 25kts
08-Nov-20 20:49 48.713723 -117.414468 91 2114ft 6kts
08-Nov-20 20:50 48.713816 -117.414551 224 2114ft 0kts
08-Nov-20 20:51 48.713789 -117.414583 213 2114ft 0kts
08-Nov-20 20:52 48.713789 -117.414583 213 2114ft 0kts
08-Nov-20 20:53 48.713789 -117.414583 213 2114ft 0kts
08-Nov-20 20:54 48.713789 -117.414583 213 2114ft 0kts

Navigation Log

Ident Type
Flight plan parsing failed, navigation log unavailable